sensor_id;sensor_type;location;lat;lon;timestamp;temperature;humidity
67942;SHT31;54731;42.600;23.476;2023-02-15T00:02:03;0.73;77.59
67942;SHT31;54731;42.600;23.476;2023-02-15T00:04:28;0.70;77.66
67942;SHT31;54731;42.600;23.476;2023-02-15T00:06:53;0.64;77.72
67942;SHT31;54731;42.600;23.476;2023-02-15T00:09:18;0.64;77.76
67942;SHT31;54731;42.600;23.476;2023-02-15T00:11:44;0.65;77.73
67942;SHT31;54731;42.600;23.476;2023-02-15T00:14:21;0.68;77.78
67942;SHT31;54731;42.600;23.476;2023-02-15T00:16:48;0.64;77.80
67942;SHT31;54731;42.600;23.476;2023-02-15T00:19:15;0.58;77.94
67942;SHT31;54731;42.600;23.476;2023-02-15T00:21:41;0.57;78.02
67942;SHT31;54731;42.600;23.476;2023-02-15T00:24:08;0.62;78.03
67942;SHT31;54731;42.600;23.476;2023-02-15T00:26:34;0.59;78.09
67942;SHT31;54731;42.600;23.476;2023-02-15T00:29:00;0.58;78.14
67942;SHT31;54731;42.600;23.476;2023-02-15T00:31:29;0.57;78.17
67942;SHT31;54731;42.600;23.476;2023-02-15T00:33:55;0.57;78.20
67942;SHT31;54731;42.600;23.476;2023-02-15T00:36:20;0.54;78.20
67942;SHT31;54731;42.600;23.476;2023-02-15T00:38:46;0.55;78.25
67942;SHT31;54731;42.600;23.476;2023-02-15T00:41:11;0.55;78.24
67942;SHT31;54731;42.600;23.476;2023-02-15T00:43:36;0.57;78.22
67942;SHT31;54731;42.600;23.476;2023-02-15T00:46:04;0.52;78.35
67942;SHT31;54731;42.600;23.476;2023-02-15T00:48:30;0.55;78.27
67942;SHT31;54731;42.600;23.476;2023-02-15T00:50:57;0.52;78.38
67942;SHT31;54731;42.600;23.476;2023-02-15T00:53:25;0.54;78.35
67942;SHT31;54731;42.600;23.476;2023-02-15T00:55:51;0.49;78.41
67942;SHT31;54731;42.600;23.476;2023-02-15T00:58:17;0.52;78.40
67942;SHT31;54731;42.600;23.476;2023-02-15T01:00:44;0.48;78.46
67942;SHT31;54731;42.600;23.476;2023-02-15T01:03:10;0.51;78.41
67942;SHT31;54731;42.600;23.476;2023-02-15T01:05:36;0.48;78.45
67942;SHT31;54731;42.600;23.476;2023-02-15T01:08:02;0.47;78.41
67942;SHT31;54731;42.600;23.476;2023-02-15T01:10:28;0.41;78.61
67942;SHT31;54731;42.600;23.476;2023-02-15T01:12:54;0.42;78.61
67942;SHT31;54731;42.600;23.476;2023-02-15T01:15:20;0.45;78.47
67942;SHT31;54731;42.600;23.476;2023-02-15T01:17:45;0.44;78.48
67942;SHT31;54731;42.600;23.476;2023-02-15T01:20:11;0.42;78.50
67942;SHT31;54731;42.600;23.476;2023-02-15T01:22:37;0.40;78.54
67942;SHT31;54731;42.600;23.476;2023-02-15T01:25:02;0.42;78.45
67942;SHT31;54731;42.600;23.476;2023-02-15T01:27:28;0.42;78.43
67942;SHT31;54731;42.600;23.476;2023-02-15T01:29:53;0.44;78.43
67942;SHT31;54731;42.600;23.476;2023-02-15T01:32:18;0.42;78.50
67942;SHT31;54731;42.600;23.476;2023-02-15T01:34:43;0.37;78.61
67942;SHT31;54731;42.600;23.476;2023-02-15T01:37:09;0.35;78.66
67942;SHT31;54731;42.600;23.476;2023-02-15T01:39:34;0.28;78.83
67942;SHT31;54731;42.600;23.476;2023-02-15T01:41:59;0.27;78.76
67942;SHT31;54731;42.600;23.476;2023-02-15T01:44:48;0.29;78.72
67942;SHT31;54731;42.600;23.476;2023-02-15T01:52:50;0.29;79.01
67942;SHT31;54731;42.600;23.476;2023-02-15T01:55:17;0.29;79.09
67942;SHT31;54731;42.600;23.476;2023-02-15T01:57:45;0.31;79.12
67942;SHT31;54731;42.600;23.476;2023-02-15T02:00:12;0.37;78.99
67942;SHT31;54731;42.600;23.476;2023-02-15T02:02:39;0.35;78.97
67942;SHT31;54731;42.600;23.476;2023-02-15T02:05:07;0.34;79.12
67942;SHT31;54731;42.600;23.476;2023-02-15T02:07:36;0.29;79.25
67942;SHT31;54731;42.600;23.476;2023-02-15T02:10:03;0.34;79.16
67942;SHT31;54731;42.600;23.476;2023-02-15T02:12:29;0.35;79.13
67942;SHT31;54731;42.600;23.476;2023-02-15T02:14:55;0.37;79.12
67942;SHT31;54731;42.600;23.476;2023-02-15T02:31:03;0.32;79.51
67942;SHT31;54731;42.600;23.476;2023-02-15T02:44:22;0.38;79.31
67942;SHT31;54731;42.600;23.476;2023-02-15T02:47:05;0.42;79.37
67942;SHT31;54731;42.600;23.476;2023-02-15T02:49:35;0.44;79.37
67942;SHT31;54731;42.600;23.476;2023-02-15T02:52:02;0.41;79.44
67942;SHT31;54731;42.600;23.476;2023-02-15T02:54:29;0.41;79.46
67942;SHT31;54731;42.600;23.476;2023-02-15T02:56:59;0.38;79.51
67942;SHT31;54731;42.600;23.476;2023-02-15T02:59:41;0.38;79.52
67942;SHT31;54731;42.600;23.476;2023-02-15T03:02:13;0.38;79.47
67942;SHT31;54731;42.600;23.476;2023-02-15T03:04:46;0.38;79.55
67942;SHT31;54731;42.600;23.476;2023-02-15T03:07:17;0.40;79.54
67942;SHT31;54731;42.600;23.476;2023-02-15T03:09:50;0.44;79.33
67942;SHT31;54731;42.600;23.476;2023-02-15T03:12:24;0.47;79.32
67942;SHT31;54731;42.600;23.476;2023-02-15T03:14:52;0.52;79.17
67942;SHT31;54731;42.600;23.476;2023-02-15T03:17:22;0.44;79.33
67942;SHT31;54731;42.600;23.476;2023-02-15T03:19:51;0.45;79.41
67942;SHT31;54731;42.600;23.476;2023-02-15T03:22:26;0.44;79.40
67942;SHT31;54731;42.600;23.476;2023-02-15T03:27:24;0.45;79.47
67942;SHT31;54731;42.600;23.476;2023-02-15T03:29:56;0.47;79.40
67942;SHT31;54731;42.600;23.476;2023-02-15T03:32:24;0.47;79.41
67942;SHT31;54731;42.600;23.476;2023-02-15T03:34:51;0.45;79.36
67942;SHT31;54731;42.600;23.476;2023-02-15T03:37:38;0.35;79.54
67942;SHT31;54731;42.600;23.476;2023-02-15T03:40:11;0.32;79.59
67942;SHT31;54731;42.600;23.476;2023-02-15T03:42:39;0.28;79.71
67942;SHT31;54731;42.600;23.476;2023-02-15T03:45:14;0.32;79.64
67942;SHT31;54731;42.600;23.476;2023-02-15T03:47:46;0.31;79.68
67942;SHT31;54731;42.600;23.476;2023-02-15T03:50:19;0.28;79.83
67942;SHT31;54731;42.600;23.476;2023-02-15T03:52:45;0.22;79.92
67942;SHT31;54731;42.600;23.476;2023-02-15T03:55:11;0.22;80.12
67942;SHT31;54731;42.600;23.476;2023-02-15T03:57:36;0.25;80.02
67942;SHT31;54731;42.600;23.476;2023-02-15T04:00:05;0.25;80.00
67942;SHT31;54731;42.600;23.476;2023-02-15T04:02:40;0.24;80.09
67942;SHT31;54731;42.600;23.476;2023-02-15T04:05:09;0.27;80.03
67942;SHT31;54731;42.600;23.476;2023-02-15T04:07:34;0.25;80.01
67942;SHT31;54731;42.600;23.476;2023-02-15T04:09:59;0.27;80.02
67942;SHT31;54731;42.600;23.476;2023-02-15T04:12:25;0.28;80.10
67942;SHT31;54731;42.600;23.476;2023-02-15T04:14:50;0.28;80.04
67942;SHT31;54731;42.600;23.476;2023-02-15T04:17:15;0.31;79.96
67942;SHT31;54731;42.600;23.476;2023-02-15T04:19:40;0.34;79.90
67942;SHT31;54731;42.600;23.476;2023-02-15T04:22:06;0.29;79.95
67942;SHT31;54731;42.600;23.476;2023-02-15T04:24:31;0.25;80.34
67942;SHT31;54731;42.600;23.476;2023-02-15T04:26:57;0.31;80.21
67942;SHT31;54731;42.600;23.476;2023-02-15T04:29:23;0.32;80.29
67942;SHT31;54731;42.600;23.476;2023-02-15T04:31:50;0.38;80.08
67942;SHT31;54731;42.600;23.476;2023-02-15T04:34:16;0.41;80.07
67942;SHT31;54731;42.600;23.476;2023-02-15T04:36:41;0.44;80.08
67942;SHT31;54731;42.600;23.476;2023-02-15T04:39:07;0.47;80.03
67942;SHT31;54731;42.600;23.476;2023-02-15T04:41:33;0.49;80.02
67942;SHT31;54731;42.600;23.476;2023-02-15T04:43:59;0.51;80.04
67942;SHT31;54731;42.600;23.476;2023-02-15T04:46:25;0.52;80.05
67942;SHT31;54731;42.600;23.476;2023-02-15T04:48:50;0.61;79.88
67942;SHT31;54731;42.600;23.476;2023-02-15T04:51:15;0.66;79.60
67942;SHT31;54731;42.600;23.476;2023-02-15T04:53:41;0.61;79.76
67942;SHT31;54731;42.600;23.476;2023-02-15T04:56:06;0.58;80.00
67942;SHT31;54731;42.600;23.476;2023-02-15T04:58:31;0.62;79.77
67942;SHT31;54731;42.600;23.476;2023-02-15T05:00:57;0.65;79.86
67942;SHT31;54731;42.600;23.476;2023-02-15T05:03:23;0.62;79.86
67942;SHT31;54731;42.600;23.476;2023-02-15T05:05:48;0.62;79.89
67942;SHT31;54731;42.600;23.476;2023-02-15T05:08:14;0.62;79.97
67942;SHT31;54731;42.600;23.476;2023-02-15T05:10:39;0.61;80.05
67942;SHT31;54731;42.600;23.476;2023-02-15T05:13:05;0.64;80.13
67942;SHT31;54731;42.600;23.476;2023-02-15T05:15:30;0.66;79.96
67942;SHT31;54731;42.600;23.476;2023-02-15T05:17:55;0.61;80.11
67942;SHT31;54731;42.600;23.476;2023-02-15T05:20:24;0.64;80.10
67942;SHT31;54731;42.600;23.476;2023-02-15T05:22:53;0.62;80.19
67942;SHT31;54731;42.600;23.476;2023-02-15T05:25:19;0.64;80.18
67942;SHT31;54731;42.600;23.476;2023-02-15T05:27:44;0.66;80.12
67942;SHT31;54731;42.600;23.476;2023-02-15T05:30:10;0.66;80.18
67942;SHT31;54731;42.600;23.476;2023-02-15T05:32:36;0.68;80.09
67942;SHT31;54731;42.600;23.476;2023-02-15T05:35:01;0.66;80.14
67942;SHT31;54731;42.600;23.476;2023-02-15T05:37:26;0.72;80.04
67942;SHT31;54731;42.600;23.476;2023-02-15T05:39:52;0.68;79.96
67942;SHT31;54731;42.600;23.476;2023-02-15T05:42:17;0.72;79.92
67942;SHT31;54731;42.600;23.476;2023-02-15T05:44:42;0.66;80.03
67942;SHT31;54731;42.600;23.476;2023-02-15T05:47:07;0.66;80.11
67942;SHT31;54731;42.600;23.476;2023-02-15T05:49:33;0.72;79.98
67942;SHT31;54731;42.600;23.476;2023-02-15T05:51:58;0.70;80.03
67942;SHT31;54731;42.600;23.476;2023-02-15T05:54:23;0.73;79.89
67942;SHT31;54731;42.600;23.476;2023-02-15T05:56:49;0.80;79.68
67942;SHT31;54731;42.600;23.476;2023-02-15T05:59:14;0.83;79.66
67942;SHT31;54731;42.600;23.476;2023-02-15T06:01:39;0.88;79.52
67942;SHT31;54731;42.600;23.476;2023-02-15T06:04:05;0.83;79.49
67942;SHT31;54731;42.600;23.476;2023-02-15T06:06:30;0.85;79.56
67942;SHT31;54731;42.600;23.476;2023-02-15T06:08:55;0.85;79.41
67942;SHT31;54731;42.600;23.476;2023-02-15T06:11:21;0.93;79.33
67942;SHT31;54731;42.600;23.476;2023-02-15T06:13:46;0.92;79.35
67942;SHT31;54731;42.600;23.476;2023-02-15T06:16:11;0.93;79.24
67942;SHT31;54731;42.600;23.476;2023-02-15T06:18:36;0.99;79.14
67942;SHT31;54731;42.600;23.476;2023-02-15T06:21:02;0.95;79.12
67942;SHT31;54731;42.600;23.476;2023-02-15T06:23:27;0.90;79.42
67942;SHT31;54731;42.600;23.476;2023-02-15T06:25:53;0.97;79.19
67942;SHT31;54731;42.600;23.476;2023-02-15T06:28:18;0.96;79.20
67942;SHT31;54731;42.600;23.476;2023-02-15T06:30:43;1.03;78.98
67942;SHT31;54731;42.600;23.476;2023-02-15T06:33:09;1.27;79.47
67942;SHT31;54731;42.600;23.476;2023-02-15T06:35:34;1.73;80.79
67942;SHT31;54731;42.600;23.476;2023-02-15T06:37:59;2.14;78.95
67942;SHT31;54731;42.600;23.476;2023-02-15T06:40:24;2.05;75.89
67942;SHT31;54731;42.600;23.476;2023-02-15T06:42:50;1.88;75.60
67942;SHT31;54731;42.600;23.476;2023-02-15T06:45:16;1.67;76.03
67942;SHT31;54731;42.600;23.476;2023-02-15T06:47:42;1.63;76.48
67942;SHT31;54731;42.600;23.476;2023-02-15T06:50:07;1.58;76.54
67942;SHT31;54731;42.600;23.476;2023-02-15T06:52:33;1.47;76.84
67942;SHT31;54731;42.600;23.476;2023-02-15T06:54:58;1.54;76.93
67942;SHT31;54731;42.600;23.476;2023-02-15T06:57:24;1.55;76.72
67942;SHT31;54731;42.600;23.476;2023-02-15T06:59:49;1.50;76.62
67942;SHT31;54731;42.600;23.476;2023-02-15T07:02:15;1.55;76.52
67942;SHT31;54731;42.600;23.476;2023-02-15T07:04:40;1.55;76.30
67942;SHT31;54731;42.600;23.476;2023-02-15T07:07:08;1.55;76.25
67942;SHT31;54731;42.600;23.476;2023-02-15T07:09:34;1.43;76.44
67942;SHT31;54731;42.600;23.476;2023-02-15T07:12:00;1.44;76.93
67942;SHT31;54731;42.600;23.476;2023-02-15T07:14:25;1.48;76.64
67942;SHT31;54731;42.600;23.476;2023-02-15T07:16:50;1.47;76.79
67942;SHT31;54731;42.600;23.476;2023-02-15T07:19:15;1.55;76.35
67942;SHT31;54731;42.600;23.476;2023-02-15T07:21:41;1.61;76.06
67942;SHT31;54731;42.600;23.476;2023-02-15T07:24:06;1.55;76.16
67942;SHT31;54731;42.600;23.476;2023-02-15T07:26:32;1.61;76.41
67942;SHT31;54731;42.600;23.476;2023-02-15T07:28:57;1.60;76.16
67942;SHT31;54731;42.600;23.476;2023-02-15T07:31:22;1.67;76.19
67942;SHT31;54731;42.600;23.476;2023-02-15T07:33:48;1.70;75.63
67942;SHT31;54731;42.600;23.476;2023-02-15T07:36:13;1.74;75.81
67942;SHT31;54731;42.600;23.476;2023-02-15T07:38:40;1.81;75.55
67942;SHT31;54731;42.600;23.476;2023-02-15T07:41:08;1.82;75.47
67942;SHT31;54731;42.600;23.476;2023-02-15T07:43:36;1.86;74.87
67942;SHT31;54731;42.600;23.476;2023-02-15T07:46:06;1.91;75.06
67942;SHT31;54731;42.600;23.476;2023-02-15T07:48:31;1.88;74.93
67942;SHT31;54731;42.600;23.476;2023-02-15T07:51:05;1.86;75.04
67942;SHT31;54731;42.600;23.476;2023-02-15T07:53:32;1.91;75.00
67942;SHT31;54731;42.600;23.476;2023-02-15T07:55:59;2.04;74.03
67942;SHT31;54731;42.600;23.476;2023-02-15T07:58:25;1.97;74.12
67942;SHT31;54731;42.600;23.476;2023-02-15T08:00:50;1.88;74.54
67942;SHT31;54731;42.600;23.476;2023-02-15T08:03:18;1.99;74.28
67942;SHT31;54731;42.600;23.476;2023-02-15T08:05:44;2.05;74.09
67942;SHT31;54731;42.600;23.476;2023-02-15T08:08:11;2.09;73.60
67942;SHT31;54731;42.600;23.476;2023-02-15T08:10:36;2.08;73.60
67942;SHT31;54731;42.600;23.476;2023-02-15T08:13:02;2.11;72.93
67942;SHT31;54731;42.600;23.476;2023-02-15T08:15:27;2.11;73.58
67942;SHT31;54731;42.600;23.476;2023-02-15T08:17:52;2.24;73.12
67942;SHT31;54731;42.600;23.476;2023-02-15T08:20:18;2.29;72.65
67942;SHT31;54731;42.600;23.476;2023-02-15T08:22:43;2.26;72.64
67942;SHT31;54731;42.600;23.476;2023-02-15T08:25:08;2.24;72.91
67942;SHT31;54731;42.600;23.476;2023-02-15T08:27:33;2.30;72.73
67942;SHT31;54731;42.600;23.476;2023-02-15T08:29:59;2.32;72.82
67942;SHT31;54731;42.600;23.476;2023-02-15T08:32:24;2.38;72.51
67942;SHT31;54731;42.600;23.476;2023-02-15T08:34:49;2.39;72.61
67942;SHT31;54731;42.600;23.476;2023-02-15T08:37:15;2.38;72.61
67942;SHT31;54731;42.600;23.476;2023-02-15T08:39:40;2.39;72.64
67942;SHT31;54731;42.600;23.476;2023-02-15T08:42:05;2.46;72.08
67942;SHT31;54731;42.600;23.476;2023-02-15T08:44:30;2.46;71.66
67942;SHT31;54731;42.600;23.476;2023-02-15T08:46:56;2.46;71.75
67942;SHT31;54731;42.600;23.476;2023-02-15T08:49:21;2.53;71.95
67942;SHT31;54731;42.600;23.476;2023-02-15T08:51:48;2.60;71.66
67942;SHT31;54731;42.600;23.476;2023-02-15T08:54:17;2.57;71.68
67942;SHT31;54731;42.600;23.476;2023-02-15T08:56:43;2.64;71.48
67942;SHT31;54731;42.600;23.476;2023-02-15T08:59:17;2.79;71.17
67942;SHT31;54731;42.600;23.476;2023-02-15T09:01:43;2.77;70.17
67942;SHT31;54731;42.600;23.476;2023-02-15T09:04:09;2.87;69.59
67942;SHT31;54731;42.600;23.476;2023-02-15T09:06:35;2.83;69.48
67942;SHT31;54731;42.600;23.476;2023-02-15T09:09:01;2.89;69.30
67942;SHT31;54731;42.600;23.476;2023-02-15T09:11:29;2.99;69.27
67942;SHT31;54731;42.600;23.476;2023-02-15T09:13:56;3.08;69.02
67942;SHT31;54731;42.600;23.476;2023-02-15T09:16:24;3.11;69.29
67942;SHT31;54731;42.600;23.476;2023-02-15T09:18:50;3.15;69.41
67942;SHT31;54731;42.600;23.476;2023-02-15T09:21:19;3.20;68.66
67942;SHT31;54731;42.600;23.476;2023-02-15T09:23:46;3.25;68.51
67942;SHT31;54731;42.600;23.476;2023-02-15T09:26:17;3.10;68.73
67942;SHT31;54731;42.600;23.476;2023-02-15T09:28:43;3.13;68.88
67942;SHT31;54731;42.600;23.476;2023-02-15T09:31:14;3.17;68.59
67942;SHT31;54731;42.600;23.476;2023-02-15T09:33:40;3.27;67.96
67942;SHT31;54731;42.600;23.476;2023-02-15T09:38:39;3.31;67.39
67942;SHT31;54731;42.600;23.476;2023-02-15T09:43:46;3.25;67.96
67942;SHT31;54731;42.600;23.476;2023-02-15T09:55:14;3.38;66.95
67942;SHT31;54731;42.600;23.476;2023-02-15T09:58:05;3.44;66.64
67942;SHT31;54731;42.600;23.476;2023-02-15T10:00:50;3.62;66.50
67942;SHT31;54731;42.600;23.476;2023-02-15T10:03:46;3.79;66.13
67942;SHT31;54731;42.600;23.476;2023-02-15T10:06:38;3.96;65.56
67942;SHT31;54731;42.600;23.476;2023-02-15T10:19:39;4.03;65.00
67942;SHT31;54731;42.600;23.476;2023-02-15T10:25:07;4.10;64.54
67942;SHT31;54731;42.600;23.476;2023-02-15T10:27:43;4.06;64.79
67942;SHT31;54731;42.600;23.476;2023-02-15T10:30:11;4.10;64.79
67942;SHT31;54731;42.600;23.476;2023-02-15T10:33:02;4.21;64.65
67942;SHT31;54731;42.600;23.476;2023-02-15T10:38:31;4.33;63.93
67942;SHT31;54731;42.600;23.476;2023-02-15T10:49:53;4.36;63.79
67942;SHT31;54731;42.600;23.476;2023-02-15T10:52:39;4.47;63.71
67942;SHT31;54731;42.600;23.476;2023-02-15T10:55:17;4.61;63.19
67942;SHT31;54731;42.600;23.476;2023-02-15T11:03:32;4.81;62.44
67942;SHT31;54731;42.600;23.476;2023-02-15T11:06:08;4.87;62.54
67942;SHT31;54731;42.600;23.476;2023-02-15T11:08:38;4.82;62.13
67942;SHT31;54731;42.600;23.476;2023-02-15T11:11:07;4.85;62.55
67942;SHT31;54731;42.600;23.476;2023-02-15T11:13:38;5.05;61.59
67942;SHT31;54731;42.600;23.476;2023-02-15T11:16:16;5.05;61.54
67942;SHT31;54731;42.600;23.476;2023-02-15T11:18:48;4.87;61.47
67942;SHT31;54731;42.600;23.476;2023-02-15T11:21:31;4.68;62.14
67942;SHT31;54731;42.600;23.476;2023-02-15T11:23:57;4.80;62.11
67942;SHT31;54731;42.600;23.476;2023-02-15T11:26:30;4.92;61.17
67942;SHT31;54731;42.600;23.476;2023-02-15T11:31:47;5.14;60.62
67942;SHT31;54731;42.600;23.476;2023-02-15T11:34:22;5.26;60.54
67942;SHT31;54731;42.600;23.476;2023-02-15T11:36:52;5.38;60.33
67942;SHT31;54731;42.600;23.476;2023-02-15T11:39:19;5.46;60.15
67942;SHT31;54731;42.600;23.476;2023-02-15T11:41:54;5.65;60.01
67942;SHT31;54731;42.600;23.476;2023-02-15T11:44:32;5.62;59.59
67942;SHT31;54731;42.600;23.476;2023-02-15T11:46:59;5.67;59.35
67942;SHT31;54731;42.600;23.476;2023-02-15T11:49:30;5.70;58.97
67942;SHT31;54731;42.600;23.476;2023-02-15T11:51:57;5.76;59.57
67942;SHT31;54731;42.600;23.476;2023-02-15T11:54:30;6.03;58.81
67942;SHT31;54731;42.600;23.476;2023-02-15T11:57:01;6.27;57.92
67942;SHT31;54731;42.600;23.476;2023-02-15T11:59:33;6.44;57.38
67942;SHT31;54731;42.600;23.476;2023-02-15T12:01:59;6.51;56.72
67942;SHT31;54731;42.600;23.476;2023-02-15T12:04:40;6.67;56.92
67942;SHT31;54731;42.600;23.476;2023-02-15T12:07:13;6.78;56.62
67942;SHT31;54731;42.600;23.476;2023-02-15T12:12:24;6.59;56.37
67942;SHT31;54731;42.600;23.476;2023-02-15T12:14:52;6.67;56.90
67942;SHT31;54731;42.600;23.476;2023-02-15T12:17:18;6.82;56.41
67942;SHT31;54731;42.600;23.476;2023-02-15T12:19:45;7.02;55.90
67942;SHT31;54731;42.600;23.476;2023-02-15T12:22:26;6.96;56.22
67942;SHT31;54731;42.600;23.476;2023-02-15T12:24:55;7.24;55.20
67942;SHT31;54731;42.600;23.476;2023-02-15T12:27:24;7.36;54.75
67942;SHT31;54731;42.600;23.476;2023-02-15T12:29:53;7.54;54.24
67942;SHT31;54731;42.600;23.476;2023-02-15T12:32:27;7.54;53.84
67942;SHT31;54731;42.600;23.476;2023-02-15T12:34:59;7.68;53.77
67942;SHT31;54731;42.600;23.476;2023-02-15T12:37:29;7.56;53.52
67942;SHT31;54731;42.600;23.476;2023-02-15T12:39:58;7.57;53.61
67942;SHT31;54731;42.600;23.476;2023-02-15T12:42:25;7.58;54.10
67942;SHT31;54731;42.600;23.476;2023-02-15T12:47:28;7.78;53.34
67942;SHT31;54731;42.600;23.476;2023-02-15T12:50:15;7.92;53.16
67942;SHT31;54731;42.600;23.476;2023-02-15T12:52:40;8.01;52.52
67942;SHT31;54731;42.600;23.476;2023-02-15T12:55:27;8.15;51.49
67942;SHT31;54731;42.600;23.476;2023-02-15T12:58:25;8.06;51.89
67942;SHT31;54731;42.600;23.476;2023-02-15T13:01:17;8.19;51.58
67942;SHT31;54731;42.600;23.476;2023-02-15T13:06:47;8.53;50.99
67942;SHT31;54731;42.600;23.476;2023-02-15T13:09:15;8.83;50.82
67942;SHT31;54731;42.600;23.476;2023-02-15T13:11:42;8.45;51.12
67942;SHT31;54731;42.600;23.476;2023-02-15T13:14:24;8.35;51.89
67942;SHT31;54731;42.600;23.476;2023-02-15T13:16:52;8.41;51.98
67942;SHT31;54731;42.600;23.476;2023-02-15T13:19:47;8.50;51.79
67942;SHT31;54731;42.600;23.476;2023-02-15T13:22:17;8.84;50.86
67942;SHT31;54731;42.600;23.476;2023-02-15T13:24:54;8.86;50.58
67942;SHT31;54731;42.600;23.476;2023-02-15T13:27:23;8.86;50.78
67942;SHT31;54731;42.600;23.476;2023-02-15T13:29:52;8.57;51.41
67942;SHT31;54731;42.600;23.476;2023-02-15T13:32:28;8.69;51.86
67942;SHT31;54731;42.600;23.476;2023-02-15T13:34:59;8.87;51.53
67942;SHT31;54731;42.600;23.476;2023-02-15T13:40:18;8.26;53.07
67942;SHT31;54731;42.600;23.476;2023-02-15T13:55:50;8.56;52.58
67942;SHT31;54731;42.600;23.476;2023-02-15T14:01:13;7.91;54.16
67942;SHT31;54731;42.600;23.476;2023-02-15T14:14:01;8.25;54.05
67942;SHT31;54731;42.600;23.476;2023-02-15T14:17:40;8.18;53.95
67942;SHT31;54731;42.600;23.476;2023-02-15T14:30:25;7.94;54.58
67942;SHT31;54731;42.600;23.476;2023-02-15T14:32:54;7.82;55.13
67942;SHT31;54731;42.600;23.476;2023-02-15T14:35:23;7.78;55.11
67942;SHT31;54731;42.600;23.476;2023-02-15T14:37:55;7.90;56.16
67942;SHT31;54731;42.600;23.476;2023-02-15T14:43:19;8.02;54.75
67942;SHT31;54731;42.600;23.476;2023-02-15T14:45:54;7.84;55.20
67942;SHT31;54731;42.600;23.476;2023-02-15T14:49:12;7.53;55.83
67942;SHT31;54731;42.600;23.476;2023-02-15T14:51:54;7.26;56.79
67942;SHT31;54731;42.600;23.476;2023-02-15T14:56:45;6.99;57.70
67942;SHT31;54731;42.600;23.476;2023-02-15T15:01:37;6.72;58.62
67942;SHT31;54731;42.600;23.476;2023-02-15T15:06:35;6.42;59.56
67942;SHT31;54731;42.600;23.476;2023-02-15T15:11:50;6.21;60.54
67942;SHT31;54731;42.600;23.476;2023-02-15T15:16:56;6.03;60.95
67942;SHT31;54731;42.600;23.476;2023-02-15T15:27:46;5.66;62.07
67942;SHT31;54731;42.600;23.476;2023-02-15T15:40:56;5.16;63.72
67942;SHT31;54731;42.600;23.476;2023-02-15T15:43:32;5.02;63.85
67942;SHT31;54731;42.600;23.476;2023-02-15T15:48:51;4.75;64.71
67942;SHT31;54731;42.600;23.476;2023-02-15T15:51:20;4.70;65.06
67942;SHT31;54731;42.600;23.476;2023-02-15T15:53:49;4.64;65.39
67942;SHT31;54731;42.600;23.476;2023-02-15T15:56:19;4.50;65.75
67942;SHT31;54731;42.600;23.476;2023-02-15T15:58:54;4.32;66.35
67942;SHT31;54731;42.600;23.476;2023-02-15T16:01:26;4.29;66.62
67942;SHT31;54731;42.600;23.476;2023-02-15T16:03:53;4.10;67.00
67942;SHT31;54731;42.600;23.476;2023-02-15T16:06:30;4.07;67.42
67942;SHT31;54731;42.600;23.476;2023-02-15T16:08:56;4.02;67.61
67942;SHT31;54731;42.600;23.476;2023-02-15T16:11:29;3.99;68.16
67942;SHT31;54731;42.600;23.476;2023-02-15T16:13:55;3.95;67.58
67942;SHT31;54731;42.600;23.476;2023-02-15T16:16:26;3.71;67.79
67942;SHT31;54731;42.600;23.476;2023-02-15T16:18:52;3.59;68.36
67942;SHT31;54731;42.600;23.476;2023-02-15T16:21:25;3.45;68.97
67942;SHT31;54731;42.600;23.476;2023-02-15T16:24:21;3.42;69.27
67942;SHT31;54731;42.600;23.476;2023-02-15T16:27:18;3.38;69.54
67942;SHT31;54731;42.600;23.476;2023-02-15T16:29:46;3.35;69.63
67942;SHT31;54731;42.600;23.476;2023-02-15T16:32:26;3.24;69.98
67942;SHT31;54731;42.600;23.476;2023-02-15T16:37:21;3.14;70.39
67942;SHT31;54731;42.600;23.476;2023-02-15T16:39:47;3.07;70.63
67942;SHT31;54731;42.600;23.476;2023-02-15T16:42:14;3.07;70.50
67942;SHT31;54731;42.600;23.476;2023-02-15T16:44:40;3.00;70.76
67942;SHT31;54731;42.600;23.476;2023-02-15T16:47:14;3.01;71.20
67942;SHT31;54731;42.600;23.476;2023-02-15T16:49:44;2.84;71.65
67942;SHT31;54731;42.600;23.476;2023-02-15T16:52:14;2.75;72.08
67942;SHT31;54731;42.600;23.476;2023-02-15T16:54:41;2.72;72.14
67942;SHT31;54731;42.600;23.476;2023-02-15T16:57:16;2.66;72.34
67942;SHT31;54731;42.600;23.476;2023-02-15T16:59:47;2.66;72.46
67942;SHT31;54731;42.600;23.476;2023-02-15T17:02:18;2.61;72.57
67942;SHT31;54731;42.600;23.476;2023-02-15T17:04:44;2.59;72.65
67942;SHT31;54731;42.600;23.476;2023-02-15T17:07:18;2.54;72.91
67942;SHT31;54731;42.600;23.476;2023-02-15T17:09:54;2.50;72.90
67942;SHT31;54731;42.600;23.476;2023-02-15T17:12:43;2.45;73.20
67942;SHT31;54731;42.600;23.476;2023-02-15T17:15:33;2.39;73.18
67942;SHT31;54731;42.600;23.476;2023-02-15T17:18:22;2.38;73.29
67942;SHT31;54731;42.600;23.476;2023-02-15T17:20:50;2.35;73.22
67942;SHT31;54731;42.600;23.476;2023-02-15T17:26:02;2.28;73.44
67942;SHT31;54731;42.600;23.476;2023-02-15T17:28:35;2.24;73.53
67942;SHT31;54731;42.600;23.476;2023-02-15T17:31:06;2.28;73.31
67942;SHT31;54731;42.600;23.476;2023-02-15T17:38:28;2.24;73.33
67942;SHT31;54731;42.600;23.476;2023-02-15T17:40:53;2.18;73.42
67942;SHT31;54731;42.600;23.476;2023-02-15T17:43:19;2.22;73.36
67942;SHT31;54731;42.600;23.476;2023-02-15T17:45:48;2.15;73.47
67942;SHT31;54731;42.600;23.476;2023-02-15T17:50:54;2.11;73.49
67942;SHT31;54731;42.600;23.476;2023-02-15T17:53:19;2.09;73.63
67942;SHT31;54731;42.600;23.476;2023-02-15T17:55:44;2.08;73.56
67942;SHT31;54731;42.600;23.476;2023-02-15T17:58:15;2.06;73.61
67942;SHT31;54731;42.600;23.476;2023-02-15T18:00:43;2.06;73.68
67942;SHT31;54731;42.600;23.476;2023-02-15T18:03:11;2.01;73.77
67942;SHT31;54731;42.600;23.476;2023-02-15T18:05:37;1.99;73.95
67942;SHT31;54731;42.600;23.476;2023-02-15T18:08:02;1.99;73.91
67942;SHT31;54731;42.600;23.476;2023-02-15T18:10:28;2.01;73.84
67942;SHT31;54731;42.600;23.476;2023-02-15T18:12:53;2.04;73.73
67942;SHT31;54731;42.600;23.476;2023-02-15T18:15:18;1.98;73.84
67942;SHT31;54731;42.600;23.476;2023-02-15T18:17:45;1.95;73.95
67942;SHT31;54731;42.600;23.476;2023-02-15T18:20:23;1.89;74.22
67942;SHT31;54731;42.600;23.476;2023-02-15T18:22:50;1.89;74.23
67942;SHT31;54731;42.600;23.476;2023-02-15T18:25:18;1.93;73.99
67942;SHT31;54731;42.600;23.476;2023-02-15T18:27:44;1.93;74.06
67942;SHT31;54731;42.600;23.476;2023-02-15T18:30:15;1.91;74.07
67942;SHT31;54731;42.600;23.476;2023-02-15T18:32:41;1.93;74.09
67942;SHT31;54731;42.600;23.476;2023-02-15T18:35:06;1.88;74.22
67942;SHT31;54731;42.600;23.476;2023-02-15T18:37:32;1.91;74.16
67942;SHT31;54731;42.600;23.476;2023-02-15T18:39:59;1.85;74.14
67942;SHT31;54731;42.600;23.476;2023-02-15T18:42:30;1.85;74.20